createdAt,value
2023-02-28T00:00:31.600Z,3.60
2023-02-28T00:01:35.037Z,3.60
2023-02-28T00:02:38.887Z,3.50
2023-02-28T00:03:41.119Z,3.10
2023-02-28T00:04:43.045Z,3.60
2023-02-28T00:05:44.981Z,3.60
2023-02-28T00:06:46.684Z,3.60
2023-02-28T00:07:49.584Z,3.60
2023-02-28T00:08:51.551Z,3.70
2023-02-28T00:09:53.452Z,3.60
2023-02-28T00:10:56.468Z,3.30
2023-02-28T00:11:59.150Z,3.60
2023-02-28T00:13:04.504Z,3.60
2023-02-28T00:14:06.319Z,3.60
2023-02-28T00:15:10.042Z,3.60
2023-02-28T00:16:16.001Z,3.50
2023-02-28T00:17:21.805Z,3.60
2023-02-28T00:18:23.496Z,3.70
2023-02-28T00:19:25.267Z,3.70
2023-02-28T00:20:27.812Z,3.70
2023-02-28T00:21:37.844Z,3.70
2023-02-28T00:22:41.343Z,3.50
2023-02-28T00:23:43.308Z,3.50
2023-02-28T00:24:45.479Z,3.70
2023-02-28T00:25:47.357Z,3.50
2023-02-28T00:26:49.090Z,3.30
2023-02-28T00:27:51.795Z,3.30
2023-02-28T00:28:54.186Z,3.70
2023-02-28T00:29:55.952Z,3.50
2023-02-28T00:30:58.650Z,3.50
2023-02-28T00:32:01.968Z,3.40
2023-02-28T00:33:03.761Z,3.60
2023-02-28T00:34:05.679Z,3.50
2023-02-28T00:35:08.613Z,3.50
2023-02-28T00:36:13.021Z,3.50
2023-02-28T00:37:15.434Z,3.50
2023-02-28T00:38:17.651Z,3.50
2023-02-28T00:39:19.682Z,3.50
2023-02-28T00:40:23.434Z,3.50
2023-02-28T00:41:32.793Z,3.50
2023-02-28T00:42:35.870Z,3.30
2023-02-28T00:43:40.722Z,3.50
2023-02-28T00:44:42.475Z,3.70
2023-02-28T00:45:44.715Z,3.50
2023-02-28T00:46:46.726Z,3.60
2023-02-28T00:47:50.973Z,3.60
2023-02-28T00:48:53.028Z,3.40
2023-02-28T00:49:57.183Z,3.40
2023-02-28T00:50:58.903Z,3.50
2023-02-28T00:52:01.013Z,3.40
2023-02-28T00:53:03.120Z,3.30
2023-02-28T00:54:05.101Z,3.40
2023-02-28T00:55:08.398Z,3.40
2023-02-28T00:56:10.166Z,3.60
2023-02-28T00:57:12.119Z,3.40
2023-02-28T00:58:14.020Z,3.40
2023-02-28T00:59:17.707Z,3.40
2023-02-28T01:00:19.763Z,3.40
2023-02-28T01:01:21.477Z,3.60
2023-02-28T01:02:24.402Z,3.40
2023-02-28T01:03:26.247Z,3.60
2023-02-28T01:04:28.278Z,3.40
2023-02-28T01:05:30.138Z,3.30
2023-02-28T01:06:32.718Z,3.60
2023-02-28T01:07:34.436Z,3.40
2023-02-28T01:08:36.399Z,3.30
2023-02-28T01:09:38.074Z,3.40
2023-02-28T01:10:40.051Z,3.30
2023-02-28T01:11:44.936Z,3.10
2023-02-28T01:12:46.672Z,3.40
2023-02-28T01:13:49.720Z,3.30
2023-02-28T01:14:51.458Z,3.30
2023-02-28T01:15:56.399Z,3.40
2023-02-28T01:17:00.802Z,3.40
2023-02-28T01:18:02.662Z,3.20
2023-02-28T01:19:05.491Z,3.30
2023-02-28T01:20:07.888Z,3.30
2023-02-28T01:21:13.685Z,3.20
2023-02-28T01:22:15.793Z,3.20
2023-02-28T01:23:17.624Z,3.20
2023-02-28T01:24:20.253Z,3.20
2023-02-28T01:25:23.688Z,3.20
2023-02-28T01:26:26.257Z,3.20
2023-02-28T01:27:29.498Z,3.40
2023-02-28T01:28:32.536Z,3.30
2023-02-28T01:29:34.450Z,3.20
2023-02-28T01:30:36.151Z,3.20
2023-02-28T01:31:38.095Z,3.20
2023-02-28T01:32:39.837Z,3.20
2023-02-28T01:33:42.256Z,3.20
2023-02-28T01:34:43.947Z,3.30
2023-02-28T01:35:45.926Z,3.30
2023-02-28T01:36:47.710Z,3.00
2023-02-28T01:37:49.641Z,3.10
2023-02-28T01:38:52.509Z,3.30
2023-02-28T01:39:54.512Z,3.10
2023-02-28T01:40:56.976Z,3.20
2023-02-28T01:41:58.959Z,3.10
2023-02-28T01:43:00.666Z,3.20
2023-02-28T01:44:26.128Z,2.90
2023-02-28T01:45:29.969Z,3.10
2023-02-28T01:46:34.182Z,3.30
2023-02-28T01:47:41.972Z,3.00
2023-02-28T01:49:01.592Z,3.10
2023-02-28T01:50:07.995Z,3.00
2023-02-28T01:51:14.385Z,3.10
2023-02-28T01:52:19.151Z,2.60
2023-02-28T01:53:29.242Z,2.90
2023-02-28T01:54:37.548Z,3.10
2023-02-28T01:55:41.856Z,3.10
2023-02-28T01:56:48.801Z,3.10
2023-02-28T01:57:56.781Z,3.20
2023-02-28T01:58:58.666Z,2.90
2023-02-28T02:00:11.047Z,3.00
2023-02-28T02:01:22.105Z,3.00
2023-02-28T02:02:27.242Z,3.20
2023-02-28T02:03:29.751Z,3.10
2023-02-28T02:04:41.215Z,3.10
2023-02-28T02:05:49.056Z,3.10
2023-02-28T02:06:51.706Z,3.00
2023-02-28T02:08:11.276Z,2.90
2023-02-28T02:09:13.333Z,3.20
2023-02-28T02:10:21.170Z,3.00
2023-02-28T02:11:25.668Z,3.20
2023-02-28T02:12:56.587Z,3.10
2023-02-28T02:14:03.895Z,3.10
2023-02-28T02:15:32.016Z,3.10
2023-02-28T02:16:57.716Z,3.00
2023-02-28T02:18:15.162Z,3.00
2023-02-28T02:19:35.959Z,3.10
2023-02-28T02:21:11.484Z,3.10
2023-02-28T02:22:41.127Z,3.00
2023-02-28T02:23:58.155Z,3.00
2023-02-28T02:25:21.178Z,2.90
2023-02-28T02:26:41.253Z,3.10
2023-02-28T02:28:21.711Z,2.90
2023-02-28T02:29:32.197Z,3.20
2023-02-28T02:31:03.669Z,3.10
2023-02-28T02:32:19.955Z,3.10
2023-02-28T02:33:44.684Z,2.90
2023-02-28T02:34:59.251Z,3.00
2023-02-28T02:36:22.678Z,2.90
2023-02-28T02:37:51.849Z,2.80
2023-02-28T02:39:05.435Z,2.90
2023-02-28T02:40:23.318Z,2.90
2023-02-28T02:41:36.979Z,3.00
2023-02-28T02:43:15.259Z,3.00
2023-02-28T02:44:28.513Z,2.90
2023-02-28T02:45:36.921Z,2.80
2023-02-28T02:46:45.242Z,3.00
2023-02-28T02:47:47.273Z,3.00
2023-02-28T02:48:50.297Z,2.70
2023-02-28T02:49:56.313Z,2.90
2023-02-28T02:51:02.093Z,3.00
2023-02-28T02:52:11.622Z,3.00
2023-02-28T02:53:15.224Z,3.00
2023-02-28T02:54:23.555Z,3.00
2023-02-28T02:55:27.550Z,2.90
2023-02-28T02:56:32.713Z,3.10
2023-02-28T02:57:46.766Z,3.20
2023-02-28T02:58:52.292Z,3.00
2023-02-28T02:59:57.657Z,2.90
2023-02-28T03:01:02.756Z,3.10
2023-02-28T03:02:08.050Z,2.90
2023-02-28T03:03:11.946Z,2.90
2023-02-28T03:04:21.172Z,2.80
2023-02-28T03:05:55.290Z,3.00
2023-02-28T03:06:57.429Z,3.10
2023-02-28T03:07:59.225Z,2.70
2023-02-28T03:09:02.530Z,2.90
2023-02-28T03:10:24.753Z,3.00
2023-02-28T03:11:27.631Z,3.20
2023-02-28T03:12:42.476Z,3.00
2023-02-28T03:13:53.423Z,3.00
2023-02-28T03:15:13.438Z,3.10
2023-02-28T03:16:30.314Z,3.20
2023-02-28T03:17:44.609Z,3.10
2023-02-28T03:19:12.549Z,3.00
2023-02-28T03:20:34.422Z,2.90
2023-02-28T03:22:13.337Z,3.20
2023-02-28T03:23:28.906Z,3.20
2023-02-28T03:24:34.479Z,3.10
2023-02-28T03:25:51.754Z,3.20
2023-02-28T03:27:04.809Z,3.10
2023-02-28T03:28:13.006Z,3.10
2023-02-28T03:29:21.954Z,3.10
2023-02-28T03:30:54.729Z,3.20
2023-02-28T03:32:08.078Z,3.10
2023-02-28T03:34:01.971Z,3.20
2023-02-28T03:35:15.179Z,3.30
2023-02-28T03:36:21.214Z,3.10
2023-02-28T03:37:26.808Z,3.20
2023-02-28T03:38:43.834Z,3.10
2023-02-28T03:39:51.885Z,3.10
2023-02-28T03:41:04.233Z,3.10
2023-02-28T03:42:11.067Z,3.00
2023-02-28T03:43:20.715Z,3.30
2023-02-28T03:44:31.697Z,3.30
2023-02-28T03:45:40.327Z,3.30
2023-02-28T03:47:06.019Z,3.30
2023-02-28T03:48:20.126Z,3.40
2023-02-28T03:49:36.279Z,3.20
2023-02-28T03:50:42.082Z,3.10
2023-02-28T03:51:46.082Z,3.40
2023-02-28T03:53:19.576Z,3.30
2023-02-28T03:54:26.708Z,3.30
2023-02-28T03:55:36.068Z,3.30
2023-02-28T03:56:54.236Z,3.10
2023-02-28T03:58:06.302Z,3.30
2023-02-28T03:59:13.742Z,3.20
2023-02-28T04:00:35.492Z,3.20
2023-02-28T04:01:46.478Z,3.30
2023-02-28T04:02:53.633Z,3.20
2023-02-28T04:03:55.886Z,3.40
2023-02-28T04:04:58.102Z,3.20
2023-02-28T04:06:00.540Z,3.20
2023-02-28T04:07:08.550Z,3.20
2023-02-28T04:08:10.382Z,3.20
2023-02-28T04:09:14.935Z,3.20
2023-02-28T04:10:17.702Z,3.20
2023-02-28T04:11:37.910Z,3.20
2023-02-28T04:12:40.744Z,3.40
2023-02-28T04:13:42.532Z,3.20
2023-02-28T04:14:44.368Z,3.20
2023-02-28T04:15:46.140Z,3.20
2023-02-28T04:16:48.426Z,3.30
2023-02-28T04:17:50.226Z,3.20
2023-02-28T04:18:53.606Z,3.30
2023-02-28T04:19:57.949Z,3.30
2023-02-28T04:21:01.732Z,3.20
2023-02-28T04:22:04.836Z,3.10
2023-02-28T04:23:13.481Z,3.30
2023-02-28T04:24:24.196Z,3.20
2023-02-28T04:25:26.237Z,3.30
2023-02-28T04:26:36.604Z,3.20
2023-02-28T04:27:38.354Z,3.30
2023-02-28T04:28:40.137Z,3.30
2023-02-28T04:29:45.623Z,3.50
2023-02-28T04:30:47.629Z,3.20
2023-02-28T04:31:49.872Z,3.30
2023-02-28T04:32:52.508Z,3.30
2023-02-28T04:33:54.390Z,3.50
2023-02-28T04:34:56.194Z,3.30
2023-02-28T04:36:08.571Z,3.50
2023-02-28T04:37:13.797Z,3.30
2023-02-28T04:38:15.963Z,3.30
2023-02-28T04:39:19.960Z,3.30
2023-02-28T04:40:21.667Z,3.40
2023-02-28T04:41:24.000Z,3.50
2023-02-28T04:42:27.934Z,3.40
2023-02-28T04:43:30.971Z,3.30
2023-02-28T04:44:33.197Z,3.40
2023-02-28T04:45:36.220Z,3.50
2023-02-28T04:46:39.358Z,3.40
2023-02-28T04:47:41.086Z,3.50
2023-02-28T04:48:43.096Z,3.40
2023-02-28T04:49:44.962Z,3.30
2023-02-28T04:50:46.841Z,3.30
2023-02-28T04:51:50.993Z,3.30
2023-02-28T04:52:53.519Z,3.60
2023-02-28T04:53:56.118Z,3.30
2023-02-28T04:54:58.235Z,3.40
2023-02-28T04:56:00.247Z,3.40
2023-02-28T04:57:02.583Z,3.50
2023-02-28T04:58:04.522Z,3.60
2023-02-28T04:59:06.216Z,3.40
2023-02-28T05:00:12.552Z,3.30
2023-02-28T05:01:17.451Z,3.40
2023-02-28T05:02:19.260Z,3.60
2023-02-28T05:03:23.216Z,3.60
2023-02-28T05:04:24.988Z,3.40
2023-02-28T05:05:26.726Z,3.50
2023-02-28T05:06:31.689Z,3.60
2023-02-28T05:07:33.626Z,3.50
2023-02-28T05:08:35.406Z,3.60
2023-02-28T05:09:37.360Z,3.40
2023-02-28T05:10:39.491Z,3.40
2023-02-28T05:11:41.959Z,3.40
2023-02-28T05:12:43.929Z,3.60
2023-02-28T05:13:46.370Z,3.50
2023-02-28T05:14:48.408Z,3.60
2023-02-28T05:15:50.644Z,3.60
2023-02-28T05:16:52.732Z,3.60
2023-02-28T05:17:54.891Z,3.10
2023-02-28T05:18:56.919Z,3.50
2023-02-28T05:20:13.393Z,3.60
2023-02-28T05:21:24.884Z,3.70
2023-02-28T05:22:27.264Z,3.50
2023-02-28T05:23:29.173Z,3.60
2023-02-28T05:24:32.144Z,3.10
2023-02-28T05:25:34.082Z,3.10
2023-02-28T05:26:40.245Z,3.50
2023-02-28T05:27:42.298Z,3.20
2023-02-28T05:28:44.089Z,3.50
2023-02-28T05:29:46.986Z,3.50
2023-02-28T05:30:48.979Z,3.60
2023-02-28T05:31:51.575Z,3.50
2023-02-28T05:32:53.951Z,3.50
2023-02-28T05:33:57.305Z,3.60
2023-02-28T05:35:00.315Z,3.60
2023-02-28T05:36:05.058Z,3.60
2023-02-28T05:37:12.008Z,3.50
2023-02-28T05:38:13.997Z,3.60
2023-02-28T05:39:16.043Z,3.10
2023-02-28T05:40:18.548Z,3.60
2023-02-28T05:41:21.502Z,3.50
2023-02-28T05:42:23.621Z,3.50
2023-02-28T05:43:26.390Z,3.60
2023-02-28T05:44:28.510Z,3.70
2023-02-28T05:45:30.294Z,3.70
2023-02-28T05:46:32.431Z,3.70
2023-02-28T05:47:34.507Z,3.50
2023-02-28T05:48:38.190Z,3.50
2023-02-28T05:49:40.280Z,3.60
2023-02-28T05:50:43.693Z,3.70
2023-02-28T05:51:48.408Z,3.50
2023-02-28T05:52:54.059Z,3.50
2023-02-28T05:53:56.351Z,3.80
2023-02-28T05:54:58.094Z,3.50
2023-02-28T05:56:00.642Z,3.40
2023-02-28T05:57:04.773Z,3.80
2023-02-28T05:58:07.937Z,3.60
2023-02-28T05:59:09.663Z,3.50
2023-02-28T06:00:12.186Z,3.70
2023-02-28T06:01:32.619Z,3.80
2023-02-28T06:02:34.619Z,3.70
2023-02-28T06:03:40.082Z,3.60
2023-02-28T06:04:43.362Z,3.80
2023-02-28T06:05:45.120Z,3.60
2023-02-28T06:06:49.156Z,3.60
2023-02-28T06:07:51.285Z,3.60
2023-02-28T06:08:53.240Z,3.60
2023-02-28T06:09:54.986Z,3.80
2023-02-28T06:10:56.771Z,3.60
2023-02-28T06:12:05.072Z,3.70
2023-02-28T06:13:07.713Z,3.70
2023-02-28T06:14:16.003Z,3.70
2023-02-28T06:15:17.852Z,3.70
2023-02-28T06:16:19.583Z,3.90
2023-02-28T06:17:23.954Z,3.90
2023-02-28T06:18:26.289Z,3.80
2023-02-28T06:19:28.337Z,3.50
2023-02-28T06:20:30.703Z,3.80
2023-02-28T06:21:33.321Z,3.90
2023-02-28T06:22:52.909Z,3.80
2023-02-28T06:23:55.583Z,3.80
2023-02-28T06:24:58.062Z,3.70
2023-02-28T06:26:00.112Z,3.50
2023-02-28T06:27:06.544Z,3.80
2023-02-28T06:28:08.628Z,3.80
2023-02-28T06:29:10.422Z,3.80
2023-02-28T06:30:13.629Z,3.80
2023-02-28T06:31:18.005Z,3.70
2023-02-28T06:32:19.909Z,3.80
2023-02-28T06:33:21.854Z,3.70
2023-02-28T06:34:23.735Z,3.80
2023-02-28T06:35:25.625Z,3.50
2023-02-28T06:36:29.010Z,3.80
2023-02-28T06:37:33.705Z,3.60
2023-02-28T06:38:35.740Z,3.80
2023-02-28T06:39:39.979Z,3.80
2023-02-28T06:40:41.925Z,3.80
2023-02-28T06:41:54.587Z,3.80
2023-02-28T06:42:57.408Z,3.80
2023-02-28T06:43:59.409Z,3.80
2023-02-28T06:45:01.233Z,3.70
2023-02-28T06:46:06.159Z,4.00
2023-02-28T06:47:08.249Z,3.30
2023-02-28T06:48:10.238Z,3.70
2023-02-28T06:49:13.214Z,3.80
2023-02-28T06:50:14.888Z,3.70
2023-02-28T06:51:23.246Z,3.90
2023-02-28T06:52:25.142Z,3.70
2023-02-28T06:53:27.585Z,3.90
2023-02-28T06:54:29.593Z,3.90
2023-02-28T06:55:31.625Z,3.80
2023-02-28T06:56:34.796Z,3.80
2023-02-28T06:57:37.371Z,3.90
2023-02-28T06:58:40.551Z,3.80
2023-02-28T06:59:42.510Z,3.50
2023-02-28T07:00:45.021Z,3.80
2023-02-28T07:01:48.658Z,3.80
2023-02-28T07:02:51.751Z,3.90
2023-02-28T07:03:53.729Z,3.90
2023-02-28T07:04:58.661Z,3.80
2023-02-28T07:06:00.803Z,4.10
2023-02-28T07:07:03.712Z,3.90
2023-02-28T07:08:07.616Z,4.00
2023-02-28T07:09:16.242Z,4.00
2023-02-28T07:10:20.355Z,3.90
2023-02-28T07:11:26.927Z,4.00
2023-02-28T07:12:28.716Z,3.80
2023-02-28T07:13:32.331Z,3.90
2023-02-28T07:14:34.102Z,4.00
2023-02-28T07:15:41.146Z,3.90
2023-02-28T07:16:45.661Z,3.90
2023-02-28T07:17:47.466Z,3.90
2023-02-28T07:18:49.624Z,3.90
2023-02-28T07:19:51.572Z,4.00
2023-02-28T07:20:55.454Z,3.70
2023-02-28T07:21:57.213Z,4.00
2023-02-28T07:22:59.519Z,4.00
2023-02-28T07:24:02.656Z,4.00
2023-02-28T07:25:06.885Z,4.00
2023-02-28T07:26:19.473Z,3.70
2023-02-28T07:27:26.793Z,4.10
2023-02-28T07:28:28.628Z,4.10
2023-02-28T07:29:30.740Z,4.10
2023-02-28T07:30:32.610Z,4.10
2023-02-28T07:31:34.650Z,4.10
2023-02-28T07:32:38.915Z,4.10
2023-02-28T07:33:40.941Z,3.80
2023-02-28T07:34:43.049Z,3.60
2023-02-28T07:35:45.557Z,4.10
2023-02-28T07:36:47.824Z,4.10
2023-02-28T07:37:50.179Z,4.10
2023-02-28T07:38:52.121Z,4.10
2023-02-28T07:39:53.838Z,4.10
2023-02-28T07:40:55.841Z,4.10
2023-02-28T07:41:57.775Z,4.20
2023-02-28T07:43:01.565Z,4.10
2023-02-28T07:44:04.463Z,4.10
2023-02-28T07:45:09.761Z,4.00
2023-02-28T07:46:16.772Z,4.10
2023-02-28T07:47:18.900Z,4.10
2023-02-28T07:48:20.651Z,4.10
2023-02-28T07:49:22.936Z,4.10
2023-02-28T07:50:27.141Z,4.10
2023-02-28T07:51:30.021Z,4.10
2023-02-28T07:52:32.111Z,4.10
2023-02-28T07:53:34.554Z,4.10
2023-02-28T07:54:36.769Z,4.10
2023-02-28T07:55:40.982Z,4.10
2023-02-28T07:56:42.962Z,4.20
2023-02-28T07:57:45.008Z,4.10
2023-02-28T07:58:47.318Z,4.20
2023-02-28T07:59:49.254Z,4.20
2023-02-28T08:00:51.465Z,4.20
2023-02-28T08:01:53.867Z,4.20
2023-02-28T08:02:57.181Z,4.20
2023-02-28T08:03:59.263Z,4.20
2023-02-28T08:05:01.484Z,4.20
2023-02-28T08:06:05.203Z,4.20
2023-02-28T08:07:07.060Z,4.20
2023-02-28T08:08:10.645Z,4.20
2023-02-28T08:09:12.847Z,4.20
2023-02-28T08:10:15.574Z,4.20
2023-02-28T08:11:18.816Z,4.30
2023-02-28T08:12:21.220Z,4.30
2023-02-28T08:13:23.002Z,4.30
2023-02-28T08:14:30.157Z,4.20
2023-02-28T08:15:32.315Z,4.30
2023-02-28T08:16:34.121Z,4.20
2023-02-28T08:17:35.945Z,4.00
2023-02-28T08:18:37.764Z,4.20
2023-02-28T08:19:39.928Z,4.20
2023-02-28T08:20:41.807Z,4.20
2023-02-28T08:21:43.540Z,4.20
2023-02-28T08:22:46.064Z,4.20
2023-02-28T08:23:49.905Z,4.20
2023-02-28T08:24:51.705Z,4.20
2023-02-28T08:25:57.831Z,4.20
2023-02-28T08:26:59.536Z,4.30
2023-02-28T08:28:02.085Z,4.30
2023-02-28T08:29:03.949Z,4.30
2023-02-28T08:30:06.667Z,4.40
2023-02-28T08:31:11.299Z,4.40
2023-02-28T08:32:28.629Z,4.40
2023-02-28T08:33:32.523Z,4.10
2023-02-28T08:34:34.581Z,4.40
2023-02-28T08:35:38.048Z,4.40
2023-02-28T08:36:41.395Z,4.40
2023-02-28T08:37:45.745Z,4.40
2023-02-28T08:38:47.492Z,4.30
2023-02-28T08:39:49.902Z,4.40
2023-02-28T08:40:59.862Z,4.40
2023-02-28T08:42:07.587Z,4.30
2023-02-28T08:43:11.571Z,4.40
2023-02-28T08:44:16.712Z,4.40
2023-02-28T08:45:20.038Z,4.40
2023-02-28T08:46:23.484Z,4.40
2023-02-28T08:47:25.521Z,4.40
2023-02-28T08:48:29.419Z,4.40
2023-02-28T08:49:31.483Z,4.40
2023-02-28T08:50:33.311Z,4.40
2023-02-28T08:51:36.387Z,4.40
2023-02-28T08:52:39.816Z,4.50
2023-02-28T08:53:41.973Z,4.40
2023-02-28T08:54:43.910Z,4.40
2023-02-28T08:55:46.364Z,4.40
2023-02-28T08:56:48.378Z,4.40
2023-02-28T08:57:50.434Z,4.30
2023-02-28T08:58:52.567Z,4.40
2023-02-28T08:59:54.567Z,4.30
2023-02-28T09:00:57.419Z,4.30
2023-02-28T09:01:59.437Z,4.30
2023-02-28T09:03:01.165Z,4.30
2023-02-28T09:04:04.196Z,4.40
2023-02-28T09:05:06.537Z,4.40
2023-02-28T09:06:09.000Z,4.40
2023-02-28T09:07:11.082Z,4.40
2023-02-28T09:08:13.098Z,4.40
2023-02-28T09:09:15.621Z,4.50
2023-02-28T09:10:22.939Z,4.50
2023-02-28T09:11:24.788Z,4.50
2023-02-28T09:12:29.420Z,4.60
2023-02-28T09:13:31.791Z,4.50
2023-02-28T09:14:33.615Z,4.60
2023-02-28T09:15:35.441Z,4.60
2023-02-28T09:16:37.741Z,4.60
2023-02-28T09:17:43.341Z,4.60
2023-02-28T09:18:46.582Z,4.60
2023-02-28T09:19:51.379Z,4.60
2023-02-28T09:21:20.696Z,4.60
2023-02-28T09:22:22.632Z,4.60
2023-02-28T09:23:25.439Z,4.60
2023-02-28T09:24:27.152Z,4.60
2023-02-28T09:25:29.952Z,4.60
2023-02-28T09:26:35.403Z,4.70
2023-02-28T09:27:46.578Z,4.70
2023-02-28T09:28:49.818Z,4.70
2023-02-28T09:29:51.845Z,4.70
2023-02-28T09:30:55.932Z,4.70
2023-02-28T09:31:59.786Z,4.80
2023-02-28T09:33:01.692Z,4.80
2023-02-28T09:34:05.473Z,4.90
2023-02-28T09:35:14.229Z,4.90
2023-02-28T09:36:16.284Z,4.90
2023-02-28T09:37:19.779Z,4.90
2023-02-28T09:38:21.552Z,4.90
2023-02-28T09:39:24.305Z,4.90
2023-02-28T09:40:27.274Z,4.90
2023-02-28T09:41:42.849Z,4.90
2023-02-28T09:42:49.252Z,4.90
2023-02-28T09:43:55.165Z,5.00
2023-02-28T09:44:59.482Z,5.00
2023-02-28T09:46:19.573Z,5.00
2023-02-28T09:47:35.786Z,5.00
2023-02-28T09:48:43.313Z,5.00
2023-02-28T09:49:49.041Z,4.90
2023-02-28T09:51:03.867Z,4.90
2023-02-28T09:52:10.960Z,4.90
2023-02-28T09:53:16.822Z,4.90
2023-02-28T09:54:24.389Z,4.90
2023-02-28T09:55:47.181Z,4.90
2023-02-28T09:57:00.580Z,5.00
2023-02-28T09:58:03.472Z,5.00
2023-02-28T09:59:19.820Z,5.00
2023-02-28T10:00:41.158Z,5.00
2023-02-28T10:01:52.277Z,5.00
2023-02-28T10:03:31.534Z,5.00
2023-02-28T10:04:56.663Z,5.10
2023-02-28T10:06:22.847Z,5.20
2023-02-28T10:08:06.169Z,5.20
2023-02-28T10:09:21.236Z,5.20
2023-02-28T10:10:35.599Z,5.20
2023-02-28T10:11:39.916Z,5.20
2023-02-28T10:12:45.710Z,5.20
2023-02-28T10:13:59.217Z,5.30
2023-02-28T10:15:05.891Z,5.30
2023-02-28T10:16:18.971Z,5.30
2023-02-28T10:17:25.701Z,5.30
2023-02-28T10:18:39.686Z,5.30
2023-02-28T10:19:50.746Z,5.30
2023-02-28T10:21:04.730Z,5.40
2023-02-28T10:22:15.948Z,5.40
2023-02-28T10:23:25.808Z,5.40
2023-02-28T10:24:38.636Z,5.40
2023-02-28T10:25:40.737Z,5.30
2023-02-28T10:26:46.185Z,5.40
2023-02-28T10:27:48.227Z,5.40
2023-02-28T10:28:50.090Z,5.40
2023-02-28T10:29:54.363Z,5.50
2023-02-28T10:30:57.040Z,5.50
2023-02-28T10:32:05.878Z,5.60
2023-02-28T10:33:24.776Z,5.60
2023-02-28T10:34:26.617Z,5.60
2023-02-28T10:35:28.649Z,5.70
2023-02-28T10:36:30.938Z,5.70
2023-02-28T10:37:33.564Z,5.80
2023-02-28T10:38:41.134Z,5.80
2023-02-28T10:39:50.117Z,5.80
2023-02-28T10:40:54.791Z,5.80
2023-02-28T10:41:56.738Z,5.80
2023-02-28T10:43:07.600Z,5.90
2023-02-28T10:44:23.080Z,5.90
2023-02-28T10:45:26.688Z,5.90
2023-02-28T10:46:34.160Z,6.00
2023-02-28T10:48:02.856Z,6.00
2023-02-28T10:49:08.623Z,6.10
2023-02-28T10:50:30.852Z,6.10
2023-02-28T10:51:41.284Z,6.10
2023-02-28T10:52:43.504Z,6.10
2023-02-28T10:54:01.139Z,6.20
2023-02-28T10:55:26.337Z,6.20
2023-02-28T10:56:28.874Z,6.30
2023-02-28T10:57:31.958Z,6.30
2023-02-28T10:58:55.091Z,6.30
2023-02-28T11:00:17.201Z,6.40
2023-02-28T11:01:24.542Z,6.40
2023-02-28T11:02:38.997Z,6.40
2023-02-28T11:03:42.199Z,6.30
2023-02-28T11:04:44.358Z,6.40
2023-02-28T11:05:48.059Z,6.40
2023-02-28T11:07:04.564Z,6.40
2023-02-28T11:08:17.428Z,6.40
2023-02-28T11:09:28.195Z,6.40
2023-02-28T11:10:35.990Z,6.40
2023-02-28T11:11:46.897Z,6.50
2023-02-28T11:12:53.230Z,6.50
2023-02-28T11:14:05.409Z,6.60
2023-02-28T11:15:28.917Z,6.60
2023-02-28T11:16:39.110Z,6.70
2023-02-28T11:17:43.599Z,6.70
2023-02-28T11:18:53.006Z,6.70
2023-02-28T11:19:58.325Z,6.70
2023-02-28T11:21:02.738Z,6.80
2023-02-28T11:22:06.665Z,6.80
2023-02-28T11:23:15.183Z,6.80
2023-02-28T11:24:43.113Z,6.80
2023-02-28T11:25:50.477Z,6.80
2023-02-28T11:26:52.474Z,6.80
2023-02-28T11:28:07.609Z,6.90
2023-02-28T11:29:47.987Z,6.90
2023-02-28T11:31:06.112Z,6.90
2023-02-28T11:32:22.545Z,6.90
2023-02-28T11:33:41.939Z,6.90
2023-02-28T11:34:45.508Z,6.90
2023-02-28T11:35:50.020Z,7.00
2023-02-28T11:36:54.135Z,7.00
2023-02-28T11:37:56.848Z,7.00
2023-02-28T11:39:04.858Z,7.00
2023-02-28T11:40:18.388Z,7.00
2023-02-28T11:41:41.149Z,7.00
2023-02-28T11:43:10.448Z,7.00
2023-02-28T11:44:55.901Z,7.00
2023-02-28T11:46:22.363Z,7.10
2023-02-28T11:47:41.351Z,7.10
2023-02-28T11:48:59.313Z,7.10
2023-02-28T11:50:08.643Z,7.10
2023-02-28T11:51:22.773Z,7.10
2023-02-28T11:52:56.354Z,7.10
2023-02-28T11:54:35.430Z,7.10
2023-02-28T11:55:40.621Z,7.10
2023-02-28T11:56:49.327Z,7.10
2023-02-28T11:58:25.417Z,7.20
2023-02-28T11:59:55.019Z,7.20
2023-02-28T12:01:18.335Z,7.20
2023-02-28T12:02:29.998Z,7.20
2023-02-28T12:03:45.154Z,7.20
2023-02-28T12:05:19.503Z,7.20
2023-02-28T12:06:27.248Z,7.20
2023-02-28T12:07:41.311Z,7.20
2023-02-28T12:09:34.718Z,7.20
2023-02-28T12:10:54.750Z,7.20
2023-02-28T12:12:26.446Z,7.20
2023-02-28T12:13:38.788Z,7.30
2023-02-28T12:14:58.276Z,7.30
2023-02-28T12:16:19.142Z,7.30
2023-02-28T12:18:05.447Z,7.30
2023-02-28T12:19:18.773Z,7.40
2023-02-28T12:20:54.409Z,7.40
2023-02-28T12:22:02.018Z,7.40
2023-02-28T12:23:31.265Z,7.30
2023-02-28T12:24:35.480Z,7.30
2023-02-28T12:26:04.387Z,7.40
2023-02-28T12:27:31.485Z,7.50
2023-02-28T12:28:43.243Z,7.50
2023-02-28T12:30:05.635Z,7.60
2023-02-28T12:31:18.107Z,7.60
2023-02-28T12:32:26.932Z,7.70
2023-02-28T12:33:35.721Z,7.60
2023-02-28T12:34:45.562Z,7.60
2023-02-28T12:35:59.783Z,7.50
2023-02-28T12:37:08.614Z,7.50
2023-02-28T12:38:20.670Z,7.50
2023-02-28T12:39:31.208Z,7.50
2023-02-28T12:41:07.270Z,7.60
2023-02-28T12:42:18.437Z,7.60
2023-02-28T12:43:22.606Z,7.70
2023-02-28T12:44:47.676Z,7.70
2023-02-28T12:46:11.575Z,7.80
2023-02-28T12:47:19.826Z,7.80
2023-02-28T12:48:28.589Z,7.90
2023-02-28T12:49:40.141Z,8.00
2023-02-28T12:50:43.349Z,8.10
2023-02-28T12:51:46.953Z,8.10
2023-02-28T12:53:00.981Z,8.10
2023-02-28T12:54:15.283Z,8.20
2023-02-28T12:55:23.179Z,8.20
2023-02-28T12:56:46.642Z,8.20
2023-02-28T12:57:57.863Z,8.20
2023-02-28T12:59:06.061Z,8.30
2023-02-28T13:00:15.431Z,8.30
2023-02-28T13:01:20.132Z,8.30
2023-02-28T13:02:24.910Z,8.30
2023-02-28T13:03:48.382Z,8.30
2023-02-28T13:05:04.141Z,8.30
2023-02-28T13:06:29.869Z,8.30
2023-02-28T13:08:05.462Z,8.30
2023-02-28T13:09:13.746Z,8.20
2023-02-28T13:10:19.912Z,8.20
2023-02-28T13:11:44.803Z,8.20
2023-02-28T13:12:56.036Z,8.10
2023-02-28T13:14:00.841Z,8.10
2023-02-28T13:15:13.526Z,8.20
2023-02-28T13:16:15.588Z,8.20
2023-02-28T13:17:21.560Z,8.20
2023-02-28T13:18:43.413Z,8.10
2023-02-28T13:19:46.988Z,8.10
2023-02-28T13:20:52.339Z,8.10
2023-02-28T13:21:55.319Z,8.20
2023-02-28T13:22:58.198Z,8.20
2023-02-28T13:24:06.075Z,8.20
2023-02-28T13:25:22.888Z,8.20
2023-02-28T13:26:51.444Z,8.30
2023-02-28T13:28:02.144Z,8.40
2023-02-28T13:29:18.943Z,8.40
2023-02-28T13:30:52.380Z,8.50
2023-02-28T13:32:09.779Z,8.60
2023-02-28T13:33:21.124Z,8.60
2023-02-28T13:34:23.145Z,8.70
2023-02-28T13:35:38.658Z,8.70
2023-02-28T13:36:40.531Z,8.80
2023-02-28T13:37:50.966Z,8.80
2023-02-28T13:38:54.812Z,8.90
2023-02-28T13:40:00.388Z,8.90
2023-02-28T13:41:29.044Z,9.00
2023-02-28T13:42:38.528Z,9.00
2023-02-28T13:44:05.803Z,9.00
2023-02-28T13:45:10.423Z,9.00
2023-02-28T13:46:15.197Z,9.10
2023-02-28T13:47:23.281Z,9.10
2023-02-28T13:48:28.644Z,9.10
2023-02-28T13:49:33.377Z,9.10
2023-02-28T13:50:39.192Z,9.10
2023-02-28T13:51:52.462Z,9.10
2023-02-28T13:53:03.079Z,9.10
2023-02-28T13:54:18.172Z,9.10
2023-02-28T13:55:28.595Z,9.10
2023-02-28T13:56:46.383Z,9.20
2023-02-28T13:58:13.989Z,9.20
2023-02-28T13:59:34.133Z,9.30
2023-02-28T14:01:06.762Z,9.30
2023-02-28T14:02:45.995Z,9.40
2023-02-28T14:04:12.225Z,9.30
2023-02-28T14:05:19.428Z,9.40
2023-02-28T14:06:29.203Z,9.30
2023-02-28T14:07:39.998Z,9.40
2023-02-28T14:08:56.692Z,9.40
2023-02-28T14:10:29.816Z,9.50
2023-02-28T14:11:38.453Z,9.60
2023-02-28T14:13:02.696Z,9.60
2023-02-28T14:14:06.771Z,9.70
2023-02-28T14:15:39.062Z,9.80
2023-02-28T14:16:51.401Z,9.90
2023-02-28T14:17:55.720Z,10.00
2023-02-28T14:19:16.738Z,10.10
2023-02-28T14:20:32.081Z,10.20
2023-02-28T14:21:35.988Z,10.40
2023-02-28T14:23:11.649Z,10.40
2023-02-28T14:24:41.687Z,10.50
2023-02-28T14:26:12.974Z,10.60
2023-02-28T14:27:17.411Z,10.70
2023-02-28T14:28:43.945Z,10.70
2023-02-28T14:29:51.501Z,10.70
2023-02-28T14:31:13.737Z,10.70
2023-02-28T14:32:31.503Z,10.70
2023-02-28T14:34:06.788Z,10.80
2023-02-28T14:35:23.883Z,10.90
2023-02-28T14:36:33.051Z,11.00
2023-02-28T14:37:40.276Z,11.00
2023-02-28T14:38:56.203Z,11.00
2023-02-28T14:40:01.506Z,11.10
2023-02-28T14:41:07.888Z,11.10
2023-02-28T14:42:29.818Z,11.10
2023-02-28T14:43:31.948Z,11.20
2023-02-28T14:44:33.978Z,11.20
2023-02-28T14:45:38.603Z,11.30
2023-02-28T14:46:42.950Z,11.30
2023-02-28T14:47:44.663Z,11.40
2023-02-28T14:48:50.937Z,11.40
2023-02-28T14:49:53.054Z,11.50
2023-02-28T14:50:59.122Z,11.50
2023-02-28T14:52:10.978Z,11.60
2023-02-28T14:53:19.795Z,11.70
2023-02-28T14:54:25.455Z,11.70
2023-02-28T14:55:33.585Z,11.80
2023-02-28T14:56:40.704Z,11.90
2023-02-28T14:57:56.075Z,12.00
2023-02-28T14:58:59.175Z,12.10
2023-02-28T15:00:24.058Z,12.20
2023-02-28T15:01:26.885Z,12.30
2023-02-28T15:02:32.972Z,12.40
2023-02-28T15:03:37.195Z,12.60
2023-02-28T15:04:39.056Z,12.80
2023-02-28T15:05:40.858Z,13.00
2023-02-28T15:06:42.673Z,13.20